createdAt,value
2019-02-07T00:00:30.156Z,17.90
2019-02-07T00:03:01.273Z,17.85
2019-02-07T00:05:31.360Z,17.17
2019-02-07T00:08:01.470Z,15.00
2019-02-07T00:10:31.626Z,18.23
2019-02-07T00:13:02.728Z,16.75
2019-02-07T00:15:33.063Z,20.30
2019-02-07T00:18:04.256Z,17.70
2019-02-07T00:20:36.367Z,16.05
2019-02-07T00:23:07.369Z,15.85
2019-02-07T00:25:37.824Z,15.90
2019-02-07T00:28:07.939Z,16.82
2019-02-07T00:30:38.103Z,16.55
2019-02-07T00:33:08.215Z,17.27
2019-02-07T00:35:38.332Z,18.55
2019-02-07T00:38:10.097Z,18.12
2019-02-07T00:40:40.191Z,17.82
2019-02-07T00:43:11.354Z,16.30
2019-02-07T00:45:41.455Z,17.05
2019-02-07T00:48:11.691Z,17.37
2019-02-07T00:50:42.773Z,17.40
2019-02-07T00:53:12.895Z,16.17
2019-02-07T00:55:42.981Z,16.35
2019-02-07T00:58:13.071Z,17.15
2019-02-07T01:00:45.176Z,16.93
2019-02-07T01:03:21.258Z,17.00
2019-02-07T01:05:51.365Z,13.98
2019-02-07T01:08:21.463Z,16.00
2019-02-07T01:10:52.600Z,16.40
2019-02-07T01:13:25.375Z,17.77
2019-02-07T01:15:56.460Z,14.85
2019-02-07T01:18:27.511Z,15.65
2019-02-07T01:21:01.215Z,14.25
2019-02-07T01:23:31.320Z,12.93
2019-02-07T01:26:01.483Z,13.95
2019-02-07T01:28:31.580Z,14.65
2019-02-07T01:31:04.804Z,14.38
2019-02-07T01:33:34.903Z,14.87
2019-02-07T01:36:05.963Z,15.98
2019-02-07T01:38:41.855Z,17.67
2019-02-07T01:41:11.968Z,15.75
2019-02-07T01:43:45.183Z,13.48
2019-02-07T01:46:15.298Z,16.05
2019-02-07T01:48:45.391Z,14.93
2019-02-07T01:51:17.497Z,15.00
2019-02-07T01:53:47.591Z,16.67
2019-02-07T01:56:18.076Z,14.78
2019-02-07T01:58:48.167Z,14.50
2019-02-07T02:01:20.191Z,15.60
2019-02-07T02:03:50.276Z,14.58
2019-02-07T02:06:21.364Z,15.85
2019-02-07T02:08:52.426Z,16.20
2019-02-07T02:11:22.516Z,13.98
2019-02-07T02:13:52.619Z,13.65
2019-02-07T02:16:24.167Z,13.32
2019-02-07T02:18:54.305Z,13.60
2019-02-07T02:21:24.424Z,13.15
2019-02-07T02:23:54.619Z,14.38
2019-02-07T02:26:24.700Z,12.95
2019-02-07T02:28:54.812Z,13.48
2019-02-07T02:31:25.619Z,15.48
2019-02-07T02:33:55.732Z,15.63
2019-02-07T02:36:25.825Z,16.27
2019-02-07T02:38:57.643Z,15.10
2019-02-07T02:41:27.742Z,15.20
2019-02-07T02:43:57.836Z,15.08
2019-02-07T02:46:27.963Z,14.10
2019-02-07T02:48:58.120Z,13.32
2019-02-07T02:51:28.587Z,12.73
2019-02-07T02:54:00.568Z,12.25
2019-02-07T02:56:30.644Z,14.15
2019-02-07T02:59:01.772Z,12.30
2019-02-07T03:01:39.345Z,14.13
2019-02-07T03:04:17.148Z,14.95
2019-02-07T03:07:05.091Z,12.98
2019-02-07T03:09:47.715Z,13.50
2019-02-07T03:12:38.437Z,8.85
2019-02-07T03:15:18.765Z,13.58
2019-02-07T03:18:06.764Z,10.95
2019-02-07T03:20:53.416Z,10.68
2019-02-07T03:23:41.104Z,14.93
2019-02-07T03:26:29.148Z,13.48
2019-02-07T03:29:18.836Z,16.02
2019-02-07T03:31:55.969Z,14.23
2019-02-07T03:34:28.694Z,14.43
2019-02-07T03:37:11.209Z,12.90
2019-02-07T03:39:45.961Z,12.80
2019-02-07T03:42:17.688Z,12.65
2019-02-07T03:44:57.969Z,11.25
2019-02-07T03:47:41.709Z,10.48
2019-02-07T03:50:29.744Z,10.13
2019-02-07T03:53:17.519Z,11.93
2019-02-07T03:56:03.104Z,15.55
2019-02-07T03:58:43.780Z,14.60
2019-02-07T04:01:18.352Z,13.58
2019-02-07T04:03:56.932Z,12.90
2019-02-07T04:06:35.658Z,12.63
2019-02-07T04:09:11.748Z,13.25
2019-02-07T04:12:08.844Z,14.10
2019-02-07T04:14:45.788Z,14.70
2019-02-07T04:17:21.276Z,15.40
2019-02-07T04:20:09.566Z,15.30
2019-02-07T04:22:44.260Z,16.05
2019-02-07T04:25:16.941Z,14.70
2019-02-07T04:27:48.920Z,11.08
2019-02-07T04:30:21.590Z,16.35
2019-02-07T04:33:08.280Z,14.78
2019-02-07T04:35:48.752Z,14.28
2019-02-07T04:38:29.342Z,12.98
2019-02-07T04:41:02.000Z,14.83
2019-02-07T04:43:33.752Z,14.05
2019-02-07T04:46:27.218Z,15.70
2019-02-07T04:49:05.116Z,13.53
2019-02-07T04:51:36.876Z,14.95
2019-02-07T04:54:08.698Z,14.98
2019-02-07T04:56:49.505Z,16.15
2019-02-07T04:59:38.036Z,16.05
2019-02-07T05:02:21.530Z,15.93
2019-02-07T05:05:01.331Z,13.35
2019-02-07T05:07:49.516Z,17.55
2019-02-07T05:10:32.710Z,15.70
2019-02-07T05:13:20.512Z,17.85
2019-02-07T05:16:06.894Z,18.10
2019-02-07T05:18:48.180Z,17.85
2019-02-07T05:21:37.945Z,13.25
2019-02-07T05:24:10.970Z,17.17
2019-02-07T05:26:58.764Z,22.15
2019-02-07T05:29:48.768Z,18.62
2019-02-07T05:32:39.544Z,18.23
2019-02-07T05:35:22.524Z,20.12
2019-02-07T05:38:03.728Z,16.40
2019-02-07T05:40:41.733Z,13.80
2019-02-07T05:43:22.384Z,17.55
2019-02-07T05:45:54.140Z,17.30
2019-02-07T05:48:34.744Z,18.40
2019-02-07T05:51:19.452Z,21.30
2019-02-07T05:54:03.079Z,20.05
2019-02-07T05:56:37.596Z,19.70
2019-02-07T05:59:12.084Z,19.67
2019-02-07T06:01:51.576Z,19.75
2019-02-07T06:04:23.935Z,17.57
2019-02-07T06:06:55.795Z,18.75
2019-02-07T06:09:27.596Z,18.67
2019-02-07T06:12:17.028Z,19.15
2019-02-07T06:14:57.557Z,20.48
2019-02-07T06:17:53.896Z,19.60
2019-02-07T06:20:31.941Z,17.77
2019-02-07T06:23:10.685Z,17.55
2019-02-07T06:25:43.633Z,15.85
2019-02-07T06:28:23.520Z,18.90
2019-02-07T06:31:05.358Z,22.37
2019-02-07T06:33:46.128Z,17.75
2019-02-07T06:36:43.704Z,17.07
2019-02-07T06:39:36.681Z,17.37
2019-02-07T06:42:24.705Z,18.45
2019-02-07T06:45:08.368Z,18.07
2019-02-07T06:47:42.805Z,18.20
2019-02-07T06:50:27.479Z,18.87
2019-02-07T06:53:01.885Z,20.15
2019-02-07T06:55:57.261Z,19.60
2019-02-07T06:58:38.645Z,18.07
2019-02-07T07:01:10.405Z,20.17
2019-02-07T07:03:44.756Z,20.97
2019-02-07T07:06:18.428Z,22.27
2019-02-07T07:09:06.043Z,18.25
2019-02-07T07:11:40.464Z,18.42
2019-02-07T07:14:23.740Z,20.80
2019-02-07T07:16:58.824Z,18.32
2019-02-07T07:19:30.572Z,24.02
2019-02-07T07:22:10.284Z,21.17
2019-02-07T07:24:56.307Z,18.95
2019-02-07T07:27:41.020Z,17.87
2019-02-07T07:30:19.526Z,19.12
2019-02-07T07:32:53.824Z,21.82
2019-02-07T07:35:32.163Z,20.62
2019-02-07T07:38:09.856Z,23.75
2019-02-07T07:40:53.933Z,21.00
2019-02-07T07:43:36.328Z,21.45
2019-02-07T07:46:20.273Z,22.70
2019-02-07T07:48:59.584Z,21.10
2019-02-07T07:51:32.289Z,21.10
2019-02-07T07:54:04.008Z,22.87
2019-02-07T07:56:42.681Z,20.68
2019-02-07T07:59:25.970Z,20.17
2019-02-07T08:02:00.104Z,22.25
2019-02-07T08:04:32.812Z,23.95
2019-02-07T08:07:22.428Z,18.40
2019-02-07T08:09:57.104Z,16.77
2019-02-07T08:12:37.994Z,16.20
2019-02-07T08:15:31.684Z,21.57
2019-02-07T08:18:09.224Z,19.10
2019-02-07T08:20:53.918Z,23.32
2019-02-07T08:23:43.840Z,23.65
2019-02-07T08:26:34.752Z,22.58
2019-02-07T08:32:30.101Z,22.62
2019-02-07T08:35:11.876Z,28.15
2019-02-07T08:38:15.536Z,22.62
2019-02-07T08:40:53.288Z,20.68
2019-02-07T08:43:37.256Z,21.75
2019-02-07T08:46:11.809Z,25.82
2019-02-07T08:48:44.412Z,22.05
2019-02-07T08:51:16.170Z,25.05
2019-02-07T08:53:50.545Z,24.63
2019-02-07T08:56:28.348Z,25.05
2019-02-07T08:59:14.920Z,25.37
2019-02-07T09:01:46.660Z,23.77
2019-02-07T09:04:21.352Z,24.25
2019-02-07T09:07:09.641Z,19.75
2019-02-07T09:09:43.996Z,17.77
2019-02-07T09:12:33.400Z,23.00
2019-02-07T09:15:08.023Z,23.05
2019-02-07T09:17:47.696Z,28.57
2019-02-07T09:20:19.425Z,22.52
2019-02-07T09:22:56.849Z,23.65
2019-02-07T09:25:47.393Z,23.77
2019-02-07T09:28:19.164Z,23.52
2019-02-07T09:31:02.906Z,26.40
2019-02-07T09:33:49.580Z,19.12
2019-02-07T09:36:25.096Z,22.85
2019-02-07T09:39:13.813Z,24.20
2019-02-07T09:41:45.549Z,23.38
2019-02-07T09:44:29.236Z,23.15
2019-02-07T09:47:05.702Z,19.37
2019-02-07T09:49:43.169Z,20.35
2019-02-07T09:52:26.918Z,21.27
2019-02-07T09:54:58.728Z,20.50
2019-02-07T09:57:30.464Z,25.17
2019-02-07T10:00:17.976Z,23.77
2019-02-07T10:03:02.309Z,22.52
2019-02-07T10:05:42.798Z,15.50
2019-02-07T10:08:17.189Z,27.20
2019-02-07T10:10:48.928Z,23.15
2019-02-07T10:13:26.524Z,23.83
2019-02-07T10:16:04.020Z,24.65
2019-02-07T10:18:35.740Z,23.35
2019-02-07T10:21:19.424Z,25.80
2019-02-07T10:23:51.157Z,27.50
2019-02-07T10:26:22.892Z,25.12
2019-02-07T10:29:10.760Z,24.45
2019-02-07T10:31:58.965Z,25.97
2019-02-07T10:34:46.553Z,28.50
2019-02-07T10:37:33.266Z,26.87
2019-02-07T10:40:27.030Z,26.82
2019-02-07T10:42:58.777Z,25.23
2019-02-07T10:45:47.568Z,26.48
2019-02-07T10:48:44.276Z,23.07
2019-02-07T10:51:08.673Z,23.83
2019-02-07T10:53:49.328Z,20.15
2019-02-07T10:56:21.060Z,25.27
2019-02-07T10:58:55.709Z,26.95
2019-02-07T11:01:44.137Z,25.43
2019-02-07T11:04:18.532Z,25.77
2019-02-07T11:07:05.682Z,24.35
2019-02-07T11:09:37.416Z,26.60
2019-02-07T11:12:23.999Z,25.15
2019-02-07T11:15:13.996Z,25.60
2019-02-07T11:17:58.989Z,23.98
2019-02-07T11:20:30.708Z,23.70
2019-02-07T11:23:13.724Z,23.83
2019-02-07T11:25:49.917Z,22.30
2019-02-07T11:28:37.920Z,21.40
2019-02-07T11:31:09.800Z,22.22
2019-02-07T11:33:44.466Z,22.98
2019-02-07T11:36:26.388Z,25.02
2019-02-07T11:39:14.964Z,24.05
2019-02-07T11:41:52.777Z,21.35
2019-02-07T11:44:53.478Z,23.67
2019-02-07T11:47:45.832Z,25.02
2019-02-07T11:50:26.514Z,24.32
2019-02-07T11:53:07.196Z,25.45
2019-02-07T11:55:58.025Z,26.20
2019-02-07T11:58:48.021Z,23.55
2019-02-07T12:01:25.897Z,26.00
2019-02-07T12:04:03.685Z,26.50
2019-02-07T12:06:35.424Z,24.52
2019-02-07T12:09:27.568Z,24.85
2019-02-07T12:12:14.476Z,23.20
2019-02-07T12:14:50.708Z,20.05
2019-02-07T12:17:30.029Z,22.40
2019-02-07T12:20:14.704Z,24.05
2019-02-07T12:22:49.872Z,24.63
2019-02-07T12:25:24.336Z,26.05
2019-02-07T12:28:13.636Z,26.30
2019-02-07T12:30:57.661Z,26.02
2019-02-07T12:33:44.158Z,24.27
2019-02-07T12:36:19.791Z,24.52
2019-02-07T12:39:16.001Z,26.70
2019-02-07T12:41:50.697Z,23.15
2019-02-07T12:44:40.849Z,26.50
2019-02-07T12:47:12.590Z,25.95
2019-02-07T12:50:00.342Z,26.73
2019-02-07T12:52:35.077Z,28.85
2019-02-07T12:55:11.012Z,26.20
2019-02-07T12:57:59.833Z,26.68
2019-02-07T13:00:42.278Z,26.60
2019-02-07T13:03:25.841Z,26.70
2019-02-07T13:06:00.429Z,24.57
2019-02-07T13:08:35.269Z,26.80
2019-02-07T13:11:18.045Z,26.35
2019-02-07T13:14:07.796Z,25.17
2019-02-07T13:16:55.551Z,25.88
2019-02-07T13:19:44.654Z,26.00
2019-02-07T13:22:25.318Z,25.55
2019-02-07T13:25:02.461Z,26.25
2019-02-07T13:27:52.323Z,30.05
2019-02-07T13:30:30.011Z,25.57
2019-02-07T13:33:22.267Z,23.90
2019-02-07T13:36:10.590Z,24.72
2019-02-07T13:38:59.734Z,26.48
2019-02-07T13:41:31.802Z,29.15
2019-02-07T13:44:20.213Z,27.67
2019-02-07T13:46:52.021Z,25.37
2019-02-07T13:49:38.810Z,28.80
2019-02-07T13:52:11.496Z,26.07
2019-02-07T13:54:44.183Z,28.87
2019-02-07T13:57:30.972Z,27.82
2019-02-07T14:00:07.610Z,27.07
2019-02-07T14:02:52.259Z,28.57
2019-02-07T14:05:38.647Z,28.40
2019-02-07T14:08:10.523Z,27.73
2019-02-07T14:10:57.177Z,25.27
2019-02-07T14:13:51.077Z,25.48
2019-02-07T14:16:48.192Z,23.20
2019-02-07T14:19:50.457Z,27.60
2019-02-07T14:22:44.357Z,26.90
2019-02-07T14:25:42.069Z,28.32
2019-02-07T14:28:38.497Z,25.32
2019-02-07T14:31:12.966Z,25.02
2019-02-07T14:34:17.241Z,26.65
2019-02-07T14:40:53.350Z,25.95
2019-02-07T14:47:11.701Z,24.85
2019-02-07T14:49:41.989Z,29.05
2019-02-07T14:52:18.321Z,29.48
2019-02-07T14:54:50.244Z,26.57
2019-02-07T14:57:29.687Z,24.85
2019-02-07T15:00:00.189Z,29.55
2019-02-07T15:02:31.147Z,27.48
2019-02-07T15:05:01.247Z,27.52
2019-02-07T15:07:49.785Z,27.87
2019-02-07T15:10:26.180Z,26.68
2019-02-07T15:13:08.405Z,25.27
2019-02-07T15:15:56.999Z,26.15
2019-02-07T15:18:28.197Z,28.07
2019-02-07T15:21:00.228Z,23.45
2019-02-07T15:23:32.208Z,28.32
2019-02-07T15:26:04.813Z,28.65
2019-02-07T15:28:45.217Z,28.17
2019-02-07T15:31:15.357Z,24.50
2019-02-07T15:33:47.418Z,30.43
2019-02-07T15:36:47.701Z,29.57
2019-02-07T15:39:19.897Z,30.35
2019-02-07T15:42:00.115Z,24.65
2019-02-07T15:44:31.453Z,30.23
2019-02-07T15:47:05.042Z,28.73
2019-02-07T15:49:45.988Z,31.30
2019-02-07T15:52:47.397Z,24.85
2019-02-07T15:55:27.809Z,24.00
2019-02-07T15:57:58.253Z,33.20
2019-02-07T16:00:38.353Z,32.65
2019-02-07T16:03:27.125Z,33.08
2019-02-07T16:06:08.025Z,30.23
2019-02-07T16:08:38.177Z,30.25
2019-02-07T16:12:20.257Z,33.85
2019-02-07T16:14:59.181Z,30.30
2019-02-07T16:21:18.681Z,29.25
2019-02-07T16:24:39.045Z,32.38
2019-02-07T16:30:57.437Z,26.70
2019-02-07T16:33:31.177Z,27.30
2019-02-07T16:43:50.413Z,30.65
2019-02-07T16:50:34.139Z,30.27
2019-02-07T16:56:52.663Z,30.10
2019-02-07T17:03:11.081Z,31.25
2019-02-07T17:09:30.643Z,29.35
2019-02-07T17:22:32.626Z,33.48
2019-02-07T17:29:03.174Z,31.90
2019-02-07T17:35:22.593Z,28.42
2019-02-07T17:45:34.719Z,29.02
2019-02-07T17:49:15.402Z,29.15
2019-02-07T17:51:46.509Z,29.32
2019-02-07T17:54:45.929Z,31.73
2019-02-07T17:57:21.476Z,29.67
2019-02-07T18:03:39.675Z,28.85
2019-02-07T18:09:57.861Z,31.10
2019-02-07T18:16:16.525Z,31.27
2019-02-07T18:22:55.128Z,30.60
2019-02-07T18:29:17.122Z,29.42
2019-02-07T18:39:32.466Z,31.33
2019-02-07T18:45:51.085Z,28.00
2019-02-07T18:49:00.462Z,33.30
2019-02-07T18:53:03.978Z,31.87
2019-02-07T18:59:40.558Z,31.50
2019-02-07T19:06:11.350Z,31.35
2019-02-07T19:12:30.541Z,30.65
2019-02-07T19:19:19.471Z,30.75
2019-02-07T19:22:20.204Z,32.00
2019-02-07T19:25:31.431Z,31.30
2019-02-07T19:32:02.706Z,30.60
2019-02-07T19:38:33.663Z,29.75
2019-02-07T19:45:09.961Z,29.15
2019-02-07T19:49:03.034Z,30.70
2019-02-07T19:52:08.199Z,31.85
2019-02-07T19:55:54.126Z,32.73
2019-02-07T19:58:42.142Z,29.82
2019-02-07T20:01:36.350Z,31.00
2019-02-07T20:05:00.448Z,34.88
2019-02-07T20:07:52.166Z,31.82
2019-02-07T20:11:18.626Z,33.25
2019-02-07T20:14:07.362Z,34.75
2019-02-07T20:17:24.078Z,32.90
2019-02-07T20:23:55.065Z,33.42
2019-02-07T20:30:45.526Z,31.07
2019-02-07T20:38:22.322Z,32.42
2019-02-07T20:44:48.894Z,32.83
2019-02-07T20:47:40.086Z,33.18
2019-02-07T20:50:20.508Z,34.15
2019-02-07T20:52:51.614Z,31.93
2019-02-07T20:55:49.096Z,32.95
2019-02-07T20:59:49.663Z,34.03
2019-02-07T21:02:31.750Z,32.95
2019-02-07T21:05:12.416Z,34.25
2019-02-07T21:08:05.850Z,31.73
2019-02-07T21:11:34.546Z,32.98
2019-02-07T21:14:35.214Z,32.60
2019-02-07T21:17:11.118Z,31.93
2019-02-07T21:23:29.950Z,31.70
2019-02-07T21:26:14.358Z,34.58
2019-02-07T21:29:03.122Z,32.88
2019-02-07T21:31:42.245Z,32.28
2019-02-07T21:34:25.406Z,33.10
2019-02-07T21:37:05.779Z,48.75
2019-02-07T21:39:44.035Z,35.68
2019-02-07T21:42:19.850Z,40.83
2019-02-07T21:44:50.923Z,36.88
2019-02-07T21:47:22.034Z,36.23
2019-02-07T21:49:52.139Z,33.85
2019-02-07T21:52:22.230Z,35.83
2019-02-07T21:54:52.527Z,36.85
2019-02-07T21:57:22.618Z,35.55
2019-02-07T22:00:00.766Z,36.60
2019-02-07T22:02:27.458Z,36.98
2019-02-07T22:05:00.538Z,35.92
2019-02-07T22:07:30.811Z,36.30
2019-02-07T22:10:01.839Z,39.20
2019-02-07T22:12:37.759Z,36.85
2019-02-07T22:15:22.498Z,36.70
2019-02-07T22:17:53.782Z,42.23
2019-02-07T22:20:33.446Z,37.98
2019-02-07T22:23:10.330Z,36.23
2019-02-07T22:25:40.443Z,33.53
2019-02-07T22:28:12.116Z,37.10
2019-02-07T22:30:42.214Z,38.05
2019-02-07T22:33:13.240Z,37.35
2019-02-07T22:35:51.299Z,37.20
2019-02-07T22:38:21.402Z,41.75
2019-02-07T22:40:52.718Z,36.25
2019-02-07T22:43:23.774Z,37.58
2019-02-07T22:45:54.668Z,39.33
2019-02-07T22:48:29.938Z,40.10
2019-02-07T22:51:07.078Z,36.85
2019-02-07T22:53:38.160Z,42.20
2019-02-07T22:56:21.178Z,39.63
2019-02-07T22:58:53.674Z,38.92
2019-02-07T23:01:40.694Z,37.65
2019-02-07T23:04:13.194Z,36.85
2019-02-07T23:06:58.598Z,40.28
2019-02-07T23:09:51.214Z,38.40
2019-02-07T23:12:31.331Z,38.30
2019-02-07T23:15:08.490Z,40.38
2019-02-07T23:17:48.482Z,37.48
2019-02-07T23:20:52.510Z,39.10
2019-02-07T23:23:41.191Z,37.95
2019-02-07T23:26:26.994Z,37.50
2019-02-07T23:29:10.338Z,39.40
2019-02-07T23:32:06.590Z,37.23
2019-02-07T23:34:38.641Z,36.50
2019-02-07T23:37:33.895Z,39.83
2019-02-07T23:40:15.982Z,41.58
2019-02-07T23:42:46.260Z,39.10
2019-02-07T23:45:25.327Z,43.05
2019-02-07T23:48:02.487Z,44.93
2019-02-07T23:50:32.617Z,38.45
2019-02-07T23:53:03.996Z,36.10
2019-02-07T23:55:34.139Z,38.63
2019-02-07T23:58:19.310Z,35.98
